sensor_id;sensor_type;location;lat;lon;timestamp;P1;durP1;ratioP1;P2;durP2;ratioP2
40863;SDS011;26582;47.524;19.012;2023-09-12T00:00:05;14.52;;;7.07;;
40863;SDS011;26582;47.524;19.012;2023-09-12T00:02:39;13.95;;;6.75;;
40863;SDS011;26582;47.524;19.012;2023-09-12T00:05:07;13.07;;;6.40;;
40863;SDS011;26582;47.524;19.012;2023-09-12T00:07:34;11.90;;;7.03;;
40863;SDS011;26582;47.524;19.012;2023-09-12T00:10:01;14.05;;;6.57;;
40863;SDS011;26582;47.524;19.012;2023-09-12T00:12:28;14.90;;;7.13;;
40863;SDS011;26582;47.524;19.012;2023-09-12T00:14:55;13.45;;;5.97;;
40863;SDS011;26582;47.524;19.012;2023-09-12T00:17:21;11.77;;;6.72;;
40863;SDS011;26582;47.524;19.012;2023-09-12T00:19:48;16.02;;;7.15;;
40863;SDS011;26582;47.524;19.012;2023-09-12T00:22:16;11.48;;;6.55;;
40863;SDS011;26582;47.524;19.012;2023-09-12T00:24:43;14.15;;;7.00;;
40863;SDS011;26582;47.524;19.012;2023-09-12T00:27:09;17.13;;;7.00;;
40863;SDS011;26582;47.524;19.012;2023-09-12T00:29:36;11.07;;;6.70;;
40863;SDS011;26582;47.524;19.012;2023-09-12T00:32:03;10.25;;;6.85;;
40863;SDS011;26582;47.524;19.012;2023-09-12T00:34:30;13.63;;;7.57;;
40863;SDS011;26582;47.524;19.012;2023-09-12T00:36:57;14.13;;;7.00;;
40863;SDS011;26582;47.524;19.012;2023-09-12T00:39:25;19.60;;;7.47;;
40863;SDS011;26582;47.524;19.012;2023-09-12T00:41:52;14.43;;;7.50;;
40863;SDS011;26582;47.524;19.012;2023-09-12T00:44:19;14.88;;;7.30;;
40863;SDS011;26582;47.524;19.012;2023-09-12T00:46:46;14.32;;;7.53;;
40863;SDS011;26582;47.524;19.012;2023-09-12T00:49:15;11.82;;;6.35;;
40863;SDS011;26582;47.524;19.012;2023-09-12T00:51:43;13.48;;;7.20;;
40863;SDS011;26582;47.524;19.012;2023-09-12T00:54:12;18.70;;;7.18;;
40863;SDS011;26582;47.524;19.012;2023-09-12T00:56:40;14.95;;;7.28;;
40863;SDS011;26582;47.524;19.012;2023-09-12T00:59:07;13.07;;;6.88;;
40863;SDS011;26582;47.524;19.012;2023-09-12T01:01:35;13.50;;;6.88;;
40863;SDS011;26582;47.524;19.012;2023-09-12T01:04:02;16.75;;;7.57;;
40863;SDS011;26582;47.524;19.012;2023-09-12T01:06:30;13.98;;;7.55;;
40863;SDS011;26582;47.524;19.012;2023-09-12T01:08:59;14.18;;;7.38;;
40863;SDS011;26582;47.524;19.012;2023-09-12T01:11:26;12.32;;;7.20;;
40863;SDS011;26582;47.524;19.012;2023-09-12T01:13:55;14.13;;;7.28;;
40863;SDS011;26582;47.524;19.012;2023-09-12T01:16:22;13.85;;;7.40;;
40863;SDS011;26582;47.524;19.012;2023-09-12T01:18:49;11.48;;;7.05;;
40863;SDS011;26582;47.524;19.012;2023-09-12T01:21:24;14.90;;;7.32;;
40863;SDS011;26582;47.524;19.012;2023-09-12T01:24:07;12.25;;;7.63;;
40863;SDS011;26582;47.524;19.012;2023-09-12T01:26:56;16.90;;;7.60;;
40863;SDS011;26582;47.524;19.012;2023-09-12T01:29:32;13.32;;;7.38;;
40863;SDS011;26582;47.524;19.012;2023-09-12T01:32:01;17.13;;;8.50;;
40863;SDS011;26582;47.524;19.012;2023-09-12T01:34:29;13.20;;;7.50;;
40863;SDS011;26582;47.524;19.012;2023-09-12T01:36:56;14.57;;;7.65;;
40863;SDS011;26582;47.524;19.012;2023-09-12T01:39:23;11.70;;;7.00;;
40863;SDS011;26582;47.524;19.012;2023-09-12T01:41:50;13.05;;;7.78;;
40863;SDS011;26582;47.524;19.012;2023-09-12T01:44:20;14.18;;;8.40;;
40863;SDS011;26582;47.524;19.012;2023-09-12T01:46:52;13.25;;;7.80;;
40863;SDS011;26582;47.524;19.012;2023-09-12T01:49:21;11.90;;;7.47;;
40863;SDS011;26582;47.524;19.012;2023-09-12T01:51:50;14.75;;;7.63;;
40863;SDS011;26582;47.524;19.012;2023-09-12T01:54:18;12.05;;;7.40;;
40863;SDS011;26582;47.524;19.012;2023-09-12T01:56:46;13.98;;;7.70;;
40863;SDS011;26582;47.524;19.012;2023-09-12T01:59:14;12.00;;;7.07;;
40863;SDS011;26582;47.524;19.012;2023-09-12T02:01:40;15.95;;;7.40;;
40863;SDS011;26582;47.524;19.012;2023-09-12T02:04:09;15.60;;;7.57;;
40863;SDS011;26582;47.524;19.012;2023-09-12T02:06:36;19.48;;;8.13;;
40863;SDS011;26582;47.524;19.012;2023-09-12T02:09:03;10.27;;;7.00;;
40863;SDS011;26582;47.524;19.012;2023-09-12T02:11:29;13.63;;;7.47;;
40863;SDS011;26582;47.524;19.012;2023-09-12T02:13:56;15.85;;;7.72;;
40863;SDS011;26582;47.524;19.012;2023-09-12T02:16:23;11.32;;;7.35;;
40863;SDS011;26582;47.524;19.012;2023-09-12T02:18:49;14.07;;;7.32;;
40863;SDS011;26582;47.524;19.012;2023-09-12T02:21:18;12.70;;;7.32;;
40863;SDS011;26582;47.524;19.012;2023-09-12T02:23:44;10.98;;;7.38;;
40863;SDS011;26582;47.524;19.012;2023-09-12T02:26:11;12.73;;;7.88;;
40863;SDS011;26582;47.524;19.012;2023-09-12T02:28:38;12.57;;;7.95;;
40863;SDS011;26582;47.524;19.012;2023-09-12T02:31:09;12.48;;;7.38;;
40863;SDS011;26582;47.524;19.012;2023-09-12T02:33:36;11.57;;;7.50;;
40863;SDS011;26582;47.524;19.012;2023-09-12T02:36:04;13.60;;;7.53;;
40863;SDS011;26582;47.524;19.012;2023-09-12T02:38:32;15.10;;;8.15;;
40863;SDS011;26582;47.524;19.012;2023-09-12T02:40:59;15.48;;;9.35;;
40863;SDS011;26582;47.524;19.012;2023-09-12T02:43:27;11.48;;;7.65;;
40863;SDS011;26582;47.524;19.012;2023-09-12T02:45:54;12.63;;;7.25;;
40863;SDS011;26582;47.524;19.012;2023-09-12T02:48:21;12.65;;;7.80;;
40863;SDS011;26582;47.524;19.012;2023-09-12T02:50:47;12.82;;;7.25;;
40863;SDS011;26582;47.524;19.012;2023-09-12T02:53:14;15.00;;;7.82;;
40863;SDS011;26582;47.524;19.012;2023-09-12T02:55:42;13.07;;;7.45;;
40863;SDS011;26582;47.524;19.012;2023-09-12T02:58:09;14.02;;;8.10;;
40863;SDS011;26582;47.524;19.012;2023-09-12T03:00:37;13.40;;;7.80;;
40863;SDS011;26582;47.524;19.012;2023-09-12T03:03:05;15.90;;;8.60;;
40863;SDS011;26582;47.524;19.012;2023-09-12T03:05:34;15.68;;;7.68;;
40863;SDS011;26582;47.524;19.012;2023-09-12T03:08:00;21.08;;;7.82;;
40863;SDS011;26582;47.524;19.012;2023-09-12T03:10:28;12.43;;;7.85;;
40863;SDS011;26582;47.524;19.012;2023-09-12T03:12:56;13.88;;;7.82;;
40863;SDS011;26582;47.524;19.012;2023-09-12T03:15:22;13.88;;;7.38;;
40863;SDS011;26582;47.524;19.012;2023-09-12T03:17:50;13.15;;;7.85;;
40863;SDS011;26582;47.524;19.012;2023-09-12T03:20:16;12.23;;;7.85;;
40863;SDS011;26582;47.524;19.012;2023-09-12T03:22:43;12.23;;;7.85;;
40863;SDS011;26582;47.524;19.012;2023-09-12T03:25:10;14.35;;;7.25;;
40863;SDS011;26582;47.524;19.012;2023-09-12T03:27:37;14.68;;;7.63;;
40863;SDS011;26582;47.524;19.012;2023-09-12T03:30:06;17.20;;;7.97;;
40863;SDS011;26582;47.524;19.012;2023-09-12T03:32:33;12.25;;;7.55;;
40863;SDS011;26582;47.524;19.012;2023-09-12T03:35:00;13.88;;;7.43;;
40863;SDS011;26582;47.524;19.012;2023-09-12T03:37:27;13.40;;;7.43;;
40863;SDS011;26582;47.524;19.012;2023-09-12T03:39:54;19.08;;;8.07;;
40863;SDS011;26582;47.524;19.012;2023-09-12T03:42:20;12.75;;;7.70;;
40863;SDS011;26582;47.524;19.012;2023-09-12T03:44:47;15.52;;;7.93;;
40863;SDS011;26582;47.524;19.012;2023-09-12T03:47:15;15.38;;;7.25;;
40863;SDS011;26582;47.524;19.012;2023-09-12T03:49:42;14.18;;;8.80;;
40863;SDS011;26582;47.524;19.012;2023-09-12T03:52:09;15.50;;;7.45;;
40863;SDS011;26582;47.524;19.012;2023-09-12T03:54:35;12.88;;;8.55;;
40863;SDS011;26582;47.524;19.012;2023-09-12T03:57:02;13.80;;;7.38;;
40863;SDS011;26582;47.524;19.012;2023-09-12T03:59:30;11.82;;;7.32;;
40863;SDS011;26582;47.524;19.012;2023-09-12T04:01:56;17.60;;;8.20;;
40863;SDS011;26582;47.524;19.012;2023-09-12T04:04:24;13.23;;;7.57;;
40863;SDS011;26582;47.524;19.012;2023-09-12T04:06:51;12.65;;;7.40;;
40863;SDS011;26582;47.524;19.012;2023-09-12T04:09:18;12.10;;;7.80;;
40863;SDS011;26582;47.524;19.012;2023-09-12T04:11:44;11.13;;;7.70;;
40863;SDS011;26582;47.524;19.012;2023-09-12T04:14:12;15.90;;;8.25;;
40863;SDS011;26582;47.524;19.012;2023-09-12T04:16:39;18.77;;;8.52;;
40863;SDS011;26582;47.524;19.012;2023-09-12T04:19:05;16.13;;;8.05;;
40863;SDS011;26582;47.524;19.012;2023-09-12T04:21:33;15.55;;;8.32;;
40863;SDS011;26582;47.524;19.012;2023-09-12T04:24:00;15.93;;;8.40;;
40863;SDS011;26582;47.524;19.012;2023-09-12T04:26:28;17.83;;;9.32;;
40863;SDS011;26582;47.524;19.012;2023-09-12T04:28:54;18.92;;;9.02;;
40863;SDS011;26582;47.524;19.012;2023-09-12T04:31:21;16.33;;;8.95;;
40863;SDS011;26582;47.524;19.012;2023-09-12T04:33:50;17.30;;;9.32;;
40863;SDS011;26582;47.524;19.012;2023-09-12T04:36:17;16.50;;;8.48;;
40863;SDS011;26582;47.524;19.012;2023-09-12T04:38:45;20.02;;;9.00;;
40863;SDS011;26582;47.524;19.012;2023-09-12T04:41:12;19.80;;;9.55;;
40863;SDS011;26582;47.524;19.012;2023-09-12T04:43:42;18.02;;;8.57;;
40863;SDS011;26582;47.524;19.012;2023-09-12T04:46:09;17.05;;;8.55;;
40863;SDS011;26582;47.524;19.012;2023-09-12T04:48:37;19.75;;;8.65;;
40863;SDS011;26582;47.524;19.012;2023-09-12T04:51:04;18.25;;;8.57;;
40863;SDS011;26582;47.524;19.012;2023-09-12T04:53:31;15.35;;;8.55;;
40863;SDS011;26582;47.524;19.012;2023-09-12T04:56:02;14.95;;;8.50;;
40863;SDS011;26582;47.524;19.012;2023-09-12T04:58:29;12.68;;;8.65;;
40863;SDS011;26582;47.524;19.012;2023-09-12T05:00:56;25.40;;;9.35;;
40863;SDS011;26582;47.524;19.012;2023-09-12T05:03:22;21.20;;;8.70;;
40863;SDS011;26582;47.524;19.012;2023-09-12T05:05:50;17.00;;;8.98;;
40863;SDS011;26582;47.524;19.012;2023-09-12T05:08:16;21.52;;;9.95;;
40863;SDS011;26582;47.524;19.012;2023-09-12T05:10:44;17.00;;;8.88;;
40863;SDS011;26582;47.524;19.012;2023-09-12T05:13:12;17.30;;;8.85;;
40863;SDS011;26582;47.524;19.012;2023-09-12T05:15:40;18.60;;;8.98;;
40863;SDS011;26582;47.524;19.012;2023-09-12T05:18:07;13.60;;;8.50;;
40863;SDS011;26582;47.524;19.012;2023-09-12T05:20:34;14.35;;;9.40;;
40863;SDS011;26582;47.524;19.012;2023-09-12T05:23:02;16.52;;;9.40;;
40863;SDS011;26582;47.524;19.012;2023-09-12T05:25:29;16.08;;;9.13;;
40863;SDS011;26582;47.524;19.012;2023-09-12T05:27:56;15.35;;;9.57;;
40863;SDS011;26582;47.524;19.012;2023-09-12T05:30:24;16.58;;;9.30;;
40863;SDS011;26582;47.524;19.012;2023-09-12T05:32:51;22.42;;;9.95;;
40863;SDS011;26582;47.524;19.012;2023-09-12T05:35:18;19.27;;;9.75;;
40863;SDS011;26582;47.524;19.012;2023-09-12T05:37:45;18.80;;;10.45;;
40863;SDS011;26582;47.524;19.012;2023-09-12T05:40:12;16.98;;;9.35;;
40863;SDS011;26582;47.524;19.012;2023-09-12T05:42:38;20.77;;;9.68;;
40863;SDS011;26582;47.524;19.012;2023-09-12T05:45:06;19.55;;;9.43;;
40863;SDS011;26582;47.524;19.012;2023-09-12T05:47:34;15.80;;;9.00;;
40863;SDS011;26582;47.524;19.012;2023-09-12T05:50:01;18.50;;;8.93;;
40863;SDS011;26582;47.524;19.012;2023-09-12T05:52:31;17.02;;;8.60;;
40863;SDS011;26582;47.524;19.012;2023-09-12T05:54:57;16.33;;;9.15;;
40863;SDS011;26582;47.524;19.012;2023-09-12T05:57:24;14.55;;;8.93;;
40863;SDS011;26582;47.524;19.012;2023-09-12T05:59:51;14.65;;;8.60;;
40863;SDS011;26582;47.524;19.012;2023-09-12T06:02:18;16.90;;;8.93;;
40863;SDS011;26582;47.524;19.012;2023-09-12T06:04:46;17.45;;;8.63;;
40863;SDS011;26582;47.524;19.012;2023-09-12T06:07:13;15.18;;;8.63;;
40863;SDS011;26582;47.524;19.012;2023-09-12T06:09:39;15.80;;;8.93;;
40863;SDS011;26582;47.524;19.012;2023-09-12T06:12:06;13.30;;;8.57;;
40863;SDS011;26582;47.524;19.012;2023-09-12T06:14:33;17.08;;;8.75;;
40863;SDS011;26582;47.524;19.012;2023-09-12T06:17:00;16.35;;;8.50;;
40863;SDS011;26582;47.524;19.012;2023-09-12T06:19:27;16.95;;;8.80;;
40863;SDS011;26582;47.524;19.012;2023-09-12T06:21:55;18.80;;;9.18;;
40863;SDS011;26582;47.524;19.012;2023-09-12T06:24:21;16.73;;;8.88;;
40863;SDS011;26582;47.524;19.012;2023-09-12T06:26:49;16.15;;;8.98;;
40863;SDS011;26582;47.524;19.012;2023-09-12T06:29:16;17.30;;;9.48;;
40863;SDS011;26582;47.524;19.012;2023-09-12T06:31:43;19.80;;;9.82;;
40863;SDS011;26582;47.524;19.012;2023-09-12T06:34:09;17.58;;;8.98;;
40863;SDS011;26582;47.524;19.012;2023-09-12T06:36:37;17.55;;;9.38;;
40863;SDS011;26582;47.524;19.012;2023-09-12T06:39:07;16.52;;;9.02;;
40863;SDS011;26582;47.524;19.012;2023-09-12T06:41:34;14.80;;;8.90;;
40863;SDS011;26582;47.524;19.012;2023-09-12T06:44:01;17.63;;;8.70;;
40863;SDS011;26582;47.524;19.012;2023-09-12T06:46:29;17.40;;;9.45;;
40863;SDS011;26582;47.524;19.012;2023-09-12T06:48:56;16.25;;;8.60;;
40863;SDS011;26582;47.524;19.012;2023-09-12T06:51:23;17.85;;;9.02;;
40863;SDS011;26582;47.524;19.012;2023-09-12T06:53:50;19.55;;;8.75;;
40863;SDS011;26582;47.524;19.012;2023-09-12T06:56:18;16.17;;;8.35;;
40863;SDS011;26582;47.524;19.012;2023-09-12T06:58:46;16.73;;;9.05;;
40863;SDS011;26582;47.524;19.012;2023-09-12T07:01:13;17.30;;;8.77;;
40863;SDS011;26582;47.524;19.012;2023-09-12T07:03:40;16.45;;;8.77;;
40863;SDS011;26582;47.524;19.012;2023-09-12T07:06:06;20.67;;;9.00;;
40863;SDS011;26582;47.524;19.012;2023-09-12T07:08:33;19.52;;;9.82;;
40863;SDS011;26582;47.524;19.012;2023-09-12T07:11:01;16.45;;;8.63;;
40863;SDS011;26582;47.524;19.012;2023-09-12T07:13:32;15.65;;;8.63;;
40863;SDS011;26582;47.524;19.012;2023-09-12T07:15:59;17.30;;;8.88;;
40863;SDS011;26582;47.524;19.012;2023-09-12T07:20:58;22.55;;;9.73;;
40863;SDS011;26582;47.524;19.012;2023-09-12T07:23:25;14.57;;;9.38;;
40863;SDS011;26582;47.524;19.012;2023-09-12T07:25:52;18.13;;;9.27;;
40863;SDS011;26582;47.524;19.012;2023-09-12T07:28:19;17.50;;;8.93;;
40863;SDS011;26582;47.524;19.012;2023-09-12T07:30:47;23.00;;;9.05;;
40863;SDS011;26582;47.524;19.012;2023-09-12T07:33:14;20.00;;;9.75;;
40863;SDS011;26582;47.524;19.012;2023-09-12T07:35:40;19.05;;;9.68;;
40863;SDS011;26582;47.524;19.012;2023-09-12T07:38:07;19.65;;;9.40;;
40863;SDS011;26582;47.524;19.012;2023-09-12T07:40:34;15.90;;;9.30;;
40863;SDS011;26582;47.524;19.012;2023-09-12T07:43:01;17.42;;;9.48;;
40863;SDS011;26582;47.524;19.012;2023-09-12T07:45:28;16.15;;;8.85;;
40863;SDS011;26582;47.524;19.012;2023-09-12T07:47:57;14.38;;;8.73;;
40863;SDS011;26582;47.524;19.012;2023-09-12T07:50:24;22.17;;;9.27;;
40863;SDS011;26582;47.524;19.012;2023-09-12T07:52:51;22.48;;;9.32;;
40863;SDS011;26582;47.524;19.012;2023-09-12T07:55:17;14.43;;;8.32;;
40863;SDS011;26582;47.524;19.012;2023-09-12T07:57:44;18.00;;;9.23;;
40863;SDS011;26582;47.524;19.012;2023-09-12T08:00:11;17.40;;;9.23;;
40863;SDS011;26582;47.524;19.012;2023-09-12T08:02:39;17.58;;;8.95;;
40863;SDS011;26582;47.524;19.012;2023-09-12T08:05:07;18.95;;;8.75;;
40863;SDS011;26582;47.524;19.012;2023-09-12T08:07:34;16.15;;;8.95;;
40863;SDS011;26582;47.524;19.012;2023-09-12T08:10:01;20.38;;;9.23;;
40863;SDS011;26582;47.524;19.012;2023-09-12T08:12:29;17.60;;;10.50;;
40863;SDS011;26582;47.524;19.012;2023-09-12T08:14:56;24.35;;;9.75;;
40863;SDS011;26582;47.524;19.012;2023-09-12T08:17:24;19.98;;;10.35;;
40863;SDS011;26582;47.524;19.012;2023-09-12T08:19:51;23.25;;;10.05;;
40863;SDS011;26582;47.524;19.012;2023-09-12T08:22:19;19.65;;;10.30;;
40863;SDS011;26582;47.524;19.012;2023-09-12T08:24:45;18.80;;;9.90;;
40863;SDS011;26582;47.524;19.012;2023-09-12T08:27:12;18.63;;;10.52;;
40863;SDS011;26582;47.524;19.012;2023-09-12T08:29:39;23.27;;;10.45;;
40863;SDS011;26582;47.524;19.012;2023-09-12T08:32:06;20.15;;;10.60;;
40863;SDS011;26582;47.524;19.012;2023-09-12T08:34:33;24.27;;;11.10;;
40863;SDS011;26582;47.524;19.012;2023-09-12T08:36:59;17.10;;;10.15;;
40863;SDS011;26582;47.524;19.012;2023-09-12T08:39:27;48.15;;;13.57;;
40863;SDS011;26582;47.524;19.012;2023-09-12T08:42:05;20.40;;;10.00;;
40863;SDS011;26582;47.524;19.012;2023-09-12T08:44:37;15.65;;;10.38;;
40863;SDS011;26582;47.524;19.012;2023-09-12T08:47:04;18.05;;;10.38;;
40863;SDS011;26582;47.524;19.012;2023-09-12T08:49:33;16.70;;;10.65;;
40863;SDS011;26582;47.524;19.012;2023-09-12T08:52:02;29.80;;;10.80;;
40863;SDS011;26582;47.524;19.012;2023-09-12T08:54:30;18.25;;;10.45;;
40863;SDS011;26582;47.524;19.012;2023-09-12T08:56:57;18.65;;;11.10;;
40863;SDS011;26582;47.524;19.012;2023-09-12T08:59:24;20.45;;;9.57;;
40863;SDS011;26582;47.524;19.012;2023-09-12T09:01:52;16.40;;;9.23;;
40863;SDS011;26582;47.524;19.012;2023-09-12T09:04:21;18.42;;;9.40;;
40863;SDS011;26582;47.524;19.012;2023-09-12T09:06:51;19.60;;;9.70;;
40863;SDS011;26582;47.524;19.012;2023-09-12T09:09:20;16.88;;;9.65;;
40863;SDS011;26582;47.524;19.012;2023-09-12T09:11:50;21.15;;;9.75;;
40863;SDS011;26582;47.524;19.012;2023-09-12T09:14:17;17.30;;;9.37;;
40863;SDS011;26582;47.524;19.012;2023-09-12T09:16:43;17.15;;;10.00;;
40863;SDS011;26582;47.524;19.012;2023-09-12T09:19:10;13.65;;;8.75;;
40863;SDS011;26582;47.524;19.012;2023-09-12T09:21:37;21.80;;;9.50;;
40863;SDS011;26582;47.524;19.012;2023-09-12T09:24:06;15.82;;;8.90;;
40863;SDS011;26582;47.524;19.012;2023-09-12T09:26:42;17.33;;;9.25;;
40863;SDS011;26582;47.524;19.012;2023-09-12T09:29:12;10.95;;;7.07;;
40863;SDS011;26582;47.524;19.012;2023-09-12T09:31:40;15.45;;;9.25;;
40863;SDS011;26582;47.524;19.012;2023-09-12T09:34:11;17.75;;;8.77;;
40863;SDS011;26582;47.524;19.012;2023-09-12T09:36:42;15.45;;;8.40;;
40863;SDS011;26582;47.524;19.012;2023-09-12T09:39:09;15.25;;;9.18;;
40863;SDS011;26582;47.524;19.012;2023-09-12T09:41:36;11.75;;;8.40;;
40863;SDS011;26582;47.524;19.012;2023-09-12T09:44:04;17.02;;;9.57;;
40863;SDS011;26582;47.524;19.012;2023-09-12T09:46:32;11.68;;;7.90;;
40863;SDS011;26582;47.524;19.012;2023-09-12T09:48:59;13.93;;;7.60;;
40863;SDS011;26582;47.524;19.012;2023-09-12T09:51:27;17.90;;;9.40;;
40863;SDS011;26582;47.524;19.012;2023-09-12T09:53:56;16.55;;;8.02;;
40863;SDS011;26582;47.524;19.012;2023-09-12T09:56:23;12.65;;;7.35;;
40863;SDS011;26582;47.524;19.012;2023-09-12T09:58:51;15.02;;;8.10;;
40863;SDS011;26582;47.524;19.012;2023-09-12T10:01:19;15.07;;;8.82;;
40863;SDS011;26582;47.524;19.012;2023-09-12T10:03:48;18.37;;;8.07;;
40863;SDS011;26582;47.524;19.012;2023-09-12T10:06:16;18.42;;;8.07;;
40863;SDS011;26582;47.524;19.012;2023-09-12T10:08:44;12.82;;;6.85;;
40863;SDS011;26582;47.524;19.012;2023-09-12T10:11:13;11.55;;;6.53;;
40863;SDS011;26582;47.524;19.012;2023-09-12T10:13:42;9.50;;;6.60;;
40863;SDS011;26582;47.524;19.012;2023-09-12T10:16:13;17.45;;;7.55;;
40863;SDS011;26582;47.524;19.012;2023-09-12T10:18:42;14.50;;;7.78;;
40863;SDS011;26582;47.524;19.012;2023-09-12T10:21:17;12.85;;;7.10;;
40863;SDS011;26582;47.524;19.012;2023-09-12T10:23:48;13.77;;;7.85;;
40863;SDS011;26582;47.524;19.012;2023-09-12T10:26:16;11.00;;;7.00;;
40863;SDS011;26582;47.524;19.012;2023-09-12T10:28:43;11.98;;;7.07;;
40863;SDS011;26582;47.524;19.012;2023-09-12T10:31:11;10.82;;;6.80;;
40863;SDS011;26582;47.524;19.012;2023-09-12T10:33:38;18.10;;;7.00;;
40863;SDS011;26582;47.524;19.012;2023-09-12T10:36:08;13.32;;;7.35;;
40863;SDS011;26582;47.524;19.012;2023-09-12T10:38:36;12.20;;;7.45;;
40863;SDS011;26582;47.524;19.012;2023-09-12T10:41:09;15.75;;;8.25;;
40863;SDS011;26582;47.524;19.012;2023-09-12T10:43:39;14.73;;;8.23;;
40863;SDS011;26582;47.524;19.012;2023-09-12T10:46:07;12.13;;;7.20;;
40863;SDS011;26582;47.524;19.012;2023-09-12T10:48:34;12.77;;;7.88;;
40863;SDS011;26582;47.524;19.012;2023-09-12T10:51:01;19.15;;;7.97;;
40863;SDS011;26582;47.524;19.012;2023-09-12T10:53:31;21.08;;;7.70;;
40863;SDS011;26582;47.524;19.012;2023-09-12T10:55:59;14.23;;;8.00;;
40863;SDS011;26582;47.524;19.012;2023-09-12T10:58:26;15.93;;;8.10;;
40863;SDS011;26582;47.524;19.012;2023-09-12T11:03:49;11.75;;;7.93;;
40863;SDS011;26582;47.524;19.012;2023-09-12T11:06:22;15.07;;;8.05;;
40863;SDS011;26582;47.524;19.012;2023-09-12T11:11:45;14.98;;;7.38;;
40863;SDS011;26582;47.524;19.012;2023-09-12T11:14:13;13.88;;;7.15;;
40863;SDS011;26582;47.524;19.012;2023-09-12T11:16:40;13.20;;;7.00;;
40863;SDS011;26582;47.524;19.012;2023-09-12T11:19:18;16.10;;;7.33;;
40863;SDS011;26582;47.524;19.012;2023-09-12T11:21:46;10.98;;;6.63;;
40863;SDS011;26582;47.524;19.012;2023-09-12T11:24:14;12.57;;;7.20;;
40863;SDS011;26582;47.524;19.012;2023-09-12T11:26:56;16.42;;;7.28;;
40863;SDS011;26582;47.524;19.012;2023-09-12T11:29:28;15.77;;;7.68;;
40863;SDS011;26582;47.524;19.012;2023-09-12T11:31:57;16.77;;;7.43;;
40863;SDS011;26582;47.524;19.012;2023-09-12T11:34:24;11.48;;;7.57;;
40863;SDS011;26582;47.524;19.012;2023-09-12T11:36:54;12.75;;;6.85;;
40863;SDS011;26582;47.524;19.012;2023-09-12T11:39:22;15.77;;;7.30;;
40863;SDS011;26582;47.524;19.012;2023-09-12T11:44:18;15.80;;;7.53;;
40863;SDS011;26582;47.524;19.012;2023-09-12T11:46:46;13.45;;;7.30;;
40863;SDS011;26582;47.524;19.012;2023-09-12T11:49:14;13.63;;;6.68;;
40863;SDS011;26582;47.524;19.012;2023-09-12T11:51:48;16.90;;;8.95;;
40863;SDS011;26582;47.524;19.012;2023-09-12T11:54:17;14.88;;;7.13;;
40863;SDS011;26582;47.524;19.012;2023-09-12T11:56:46;19.25;;;7.50;;
40863;SDS011;26582;47.524;19.012;2023-09-12T11:59:13;16.13;;;7.30;;
40863;SDS011;26582;47.524;19.012;2023-09-12T12:01:43;18.52;;;7.28;;
40863;SDS011;26582;47.524;19.012;2023-09-12T12:06:36;16.65;;;7.07;;
40863;SDS011;26582;47.524;19.012;2023-09-12T12:09:03;12.40;;;6.68;;
40863;SDS011;26582;47.524;19.012;2023-09-12T12:11:31;14.85;;;7.13;;
40863;SDS011;26582;47.524;19.012;2023-09-12T12:14:04;15.23;;;6.43;;
40863;SDS011;26582;47.524;19.012;2023-09-12T12:16:35;14.13;;;7.30;;
40863;SDS011;26582;47.524;19.012;2023-09-12T12:19:03;18.75;;;7.13;;
40863;SDS011;26582;47.524;19.012;2023-09-12T12:21:30;14.38;;;6.80;;
40863;SDS011;26582;47.524;19.012;2023-09-12T12:23:58;11.55;;;6.53;;
40863;SDS011;26582;47.524;19.012;2023-09-12T12:26:25;15.80;;;7.15;;
40863;SDS011;26582;47.524;19.012;2023-09-12T12:28:52;15.80;;;6.65;;
40863;SDS011;26582;47.524;19.012;2023-09-12T12:31:19;16.33;;;6.82;;
40863;SDS011;26582;47.524;19.012;2023-09-12T12:33:49;16.00;;;6.75;;
40863;SDS011;26582;47.524;19.012;2023-09-12T12:36:20;18.63;;;6.70;;
40863;SDS011;26582;47.524;19.012;2023-09-12T12:38:47;16.33;;;6.82;;
40863;SDS011;26582;47.524;19.012;2023-09-12T12:41:15;13.98;;;6.70;;
40863;SDS011;26582;47.524;19.012;2023-09-12T12:43:43;14.05;;;6.65;;
40863;SDS011;26582;47.524;19.012;2023-09-12T12:46:10;15.32;;;6.15;;
40863;SDS011;26582;47.524;19.012;2023-09-12T12:48:38;16.60;;;6.30;;
40863;SDS011;26582;47.524;19.012;2023-09-12T12:51:13;15.45;;;5.88;;
40863;SDS011;26582;47.524;19.012;2023-09-12T12:53:43;12.65;;;5.70;;
40863;SDS011;26582;47.524;19.012;2023-09-12T12:56:14;13.77;;;5.72;;
40863;SDS011;26582;47.524;19.012;2023-09-12T12:58:47;14.07;;;5.90;;
40863;SDS011;26582;47.524;19.012;2023-09-12T13:01:14;13.63;;;5.60;;
40863;SDS011;26582;47.524;19.012;2023-09-12T13:03:41;16.90;;;6.13;;
40863;SDS011;26582;47.524;19.012;2023-09-12T13:06:08;16.67;;;6.28;;
40863;SDS011;26582;47.524;19.012;2023-09-12T13:08:39;11.60;;;5.85;;
40863;SDS011;26582;47.524;19.012;2023-09-12T13:11:10;12.40;;;5.70;;
40863;SDS011;26582;47.524;19.012;2023-09-12T13:13:39;15.48;;;6.10;;
40863;SDS011;26582;47.524;19.012;2023-09-12T13:16:08;14.45;;;6.00;;
40863;SDS011;26582;47.524;19.012;2023-09-12T13:18:36;16.42;;;6.30;;
40863;SDS011;26582;47.524;19.012;2023-09-12T13:21:04;11.70;;;5.43;;
40863;SDS011;26582;47.524;19.012;2023-09-12T13:23:32;13.53;;;5.90;;
40863;SDS011;26582;47.524;19.012;2023-09-12T13:26:01;12.63;;;6.20;;
40863;SDS011;26582;47.524;19.012;2023-09-12T13:28:28;16.38;;;5.63;;
40863;SDS011;26582;47.524;19.012;2023-09-12T13:30:56;16.83;;;6.53;;
40863;SDS011;26582;47.524;19.012;2023-09-12T13:33:23;14.90;;;6.53;;
40863;SDS011;26582;47.524;19.012;2023-09-12T13:35:50;12.82;;;5.53;;
40863;SDS011;26582;47.524;19.012;2023-09-12T13:38:17;14.07;;;6.40;;
40863;SDS011;26582;47.524;19.012;2023-09-12T13:40:45;14.90;;;6.20;;
40863;SDS011;26582;47.524;19.012;2023-09-12T13:43:14;12.80;;;5.47;;
40863;SDS011;26582;47.524;19.012;2023-09-12T13:45:41;14.80;;;6.22;;
40863;SDS011;26582;47.524;19.012;2023-09-12T13:48:07;15.52;;;6.18;;
40863;SDS011;26582;47.524;19.012;2023-09-12T13:50:34;15.02;;;6.13;;
40863;SDS011;26582;47.524;19.012;2023-09-12T13:53:02;18.02;;;6.78;;
40863;SDS011;26582;47.524;19.012;2023-09-12T13:55:31;13.40;;;6.10;;
40863;SDS011;26582;47.524;19.012;2023-09-12T13:57:58;17.05;;;5.75;;
40863;SDS011;26582;47.524;19.012;2023-09-12T14:00:27;14.98;;;6.40;;
40863;SDS011;26582;47.524;19.012;2023-09-12T14:02:54;17.27;;;5.85;;
40863;SDS011;26582;47.524;19.012;2023-09-12T14:05:21;13.23;;;6.10;;
40863;SDS011;26582;47.524;19.012;2023-09-12T14:07:48;15.85;;;6.55;;
40863;SDS011;26582;47.524;19.012;2023-09-12T14:10:16;10.80;;;5.63;;
40863;SDS011;26582;47.524;19.012;2023-09-12T14:12:43;14.13;;;6.40;;
40863;SDS011;26582;47.524;19.012;2023-09-12T14:15:11;13.83;;;6.30;;
40863;SDS011;26582;47.524;19.012;2023-09-12T14:17:43;18.08;;;6.28;;
40863;SDS011;26582;47.524;19.012;2023-09-12T14:20:11;13.30;;;6.65;;
40863;SDS011;26582;47.524;19.012;2023-09-12T14:22:41;13.93;;;6.50;;
40863;SDS011;26582;47.524;19.012;2023-09-12T14:25:10;15.27;;;5.72;;
40863;SDS011;26582;47.524;19.012;2023-09-12T14:27:43;15.40;;;5.93;;
40863;SDS011;26582;47.524;19.012;2023-09-12T14:30:12;11.10;;;5.85;;
40863;SDS011;26582;47.524;19.012;2023-09-12T14:32:41;16.85;;;5.80;;
40863;SDS011;26582;47.524;19.012;2023-09-12T14:35:11;17.63;;;6.32;;
40863;SDS011;26582;47.524;19.012;2023-09-12T14:37:38;14.55;;;6.22;;